sensor_id;sensor_type;location;lat;lon;timestamp;pressure;altitude;pressure_sealevel;temperature;humidity
6778;BME280;3426;52.244;10.534;2023-04-10T00:01:59;101611.22;;;10.78;55.80
6778;BME280;3426;52.244;10.534;2023-04-10T00:04:25;101611.88;;;10.61;55.74
6778;BME280;3426;52.244;10.534;2023-04-10T00:06:53;101618.53;;;10.50;56.34
6778;BME280;3426;52.244;10.534;2023-04-10T00:09:20;101609.84;;;10.68;55.68
6778;BME280;3426;52.244;10.534;2023-04-10T00:11:47;101608.56;;;10.78;55.11
6778;BME280;3426;52.244;10.534;2023-04-10T00:14:13;101603.25;;;10.78;55.44
6778;BME280;3426;52.244;10.534;2023-04-10T00:16:40;101607.22;;;10.90;54.95
6778;BME280;3426;52.244;10.534;2023-04-10T00:19:06;101601.16;;;10.86;54.75
6778;BME280;3426;52.244;10.534;2023-04-10T00:21:33;101613.88;;;10.78;54.91
6778;BME280;3426;52.244;10.534;2023-04-10T00:23:59;101611.69;;;10.88;54.90
6778;BME280;3426;52.244;10.534;2023-04-10T00:26:26;101609.53;;;10.98;53.67
6778;BME280;3426;52.244;10.534;2023-04-10T00:28:52;101606.81;;;11.21;53.58
6778;BME280;3426;52.244;10.534;2023-04-10T00:31:19;101610.75;;;11.11;53.46
6778;BME280;3426;52.244;10.534;2023-04-10T00:33:46;101612.69;;;11.28;52.86
6778;BME280;3426;52.244;10.534;2023-04-10T00:36:12;101609.44;;;11.01;53.02
6778;BME280;3426;52.244;10.534;2023-04-10T00:38:39;101615.16;;;11.32;52.27
6778;BME280;3426;52.244;10.534;2023-04-10T00:41:05;101611.31;;;11.39;51.98
6778;BME280;3426;52.244;10.534;2023-04-10T00:43:32;101612.34;;;11.57;51.62
6778;BME280;3426;52.244;10.534;2023-04-10T00:45:59;101600.72;;;11.39;52.40
6778;BME280;3426;52.244;10.534;2023-04-10T00:48:26;101608.44;;;11.66;52.00
6778;BME280;3426;52.244;10.534;2023-04-10T00:50:53;101612.84;;;11.25;52.07
6778;BME280;3426;52.244;10.534;2023-04-10T00:53:20;101610.19;;;11.45;51.81
6778;BME280;3426;52.244;10.534;2023-04-10T00:55:48;101615.66;;;11.42;51.97
6778;BME280;3426;52.244;10.534;2023-04-10T00:58:14;101606.44;;;11.71;51.01
6778;BME280;3426;52.244;10.534;2023-04-10T01:00:41;101610.97;;;11.69;51.03
6778;BME280;3426;52.244;10.534;2023-04-10T01:03:08;101609.88;;;11.73;51.40
6778;BME280;3426;52.244;10.534;2023-04-10T01:06:04;101604.53;;;11.75;51.10
6778;BME280;3426;52.244;10.534;2023-04-10T01:11:13;101611.41;;;11.58;51.99
6778;BME280;3426;52.244;10.534;2023-04-10T01:13:48;101611.22;;;11.43;52.30
6778;BME280;3426;52.244;10.534;2023-04-10T01:19:08;101611.16;;;11.02;53.65
6778;BME280;3426;52.244;10.534;2023-04-10T01:21:38;101606.34;;;10.90;53.93
6778;BME280;3426;52.244;10.534;2023-04-10T01:30:31;101604.50;;;10.92;54.28
6778;BME280;3426;52.244;10.534;2023-04-10T01:32:59;101602.63;;;10.94;54.39
6778;BME280;3426;52.244;10.534;2023-04-10T01:35:28;101603.94;;;10.83;54.62
6778;BME280;3426;52.244;10.534;2023-04-10T01:37:56;101601.75;;;10.71;54.44
6778;BME280;3426;52.244;10.534;2023-04-10T01:40:26;101601.75;;;10.71;54.74
6778;BME280;3426;52.244;10.534;2023-04-10T01:42:55;101599.34;;;10.65;55.17
6778;BME280;3426;52.244;10.534;2023-04-10T01:45:26;101606.44;;;10.65;54.78
6778;BME280;3426;52.244;10.534;2023-04-10T01:47:54;101604.22;;;10.76;54.81
6778;BME280;3426;52.244;10.534;2023-04-10T01:50:21;101609.03;;;10.66;55.44
6778;BME280;3426;52.244;10.534;2023-04-10T01:52:53;101610.94;;;10.63;55.43
6778;BME280;3426;52.244;10.534;2023-04-10T01:55:20;101609.16;;;10.63;55.17
6778;BME280;3426;52.244;10.534;2023-04-10T01:57:47;101619.31;;;10.28;56.26
6778;BME280;3426;52.244;10.534;2023-04-10T02:00:15;101609.66;;;10.27;56.20
6778;BME280;3426;52.244;10.534;2023-04-10T02:02:42;101604.59;;;10.20;56.32
6778;BME280;3426;52.244;10.534;2023-04-10T02:05:09;101609.16;;;10.16;56.73
6778;BME280;3426;52.244;10.534;2023-04-10T02:10:29;101600.09;;;10.23;56.11
6778;BME280;3426;52.244;10.534;2023-04-10T02:13:10;101603.06;;;10.38;56.11
6778;BME280;3426;52.244;10.534;2023-04-10T02:15:40;101605.75;;;10.13;56.54
6778;BME280;3426;52.244;10.534;2023-04-10T02:18:09;101596.03;;;10.13;56.31
6778;BME280;3426;52.244;10.534;2023-04-10T02:20:36;101593.47;;;10.35;55.82
6778;BME280;3426;52.244;10.534;2023-04-10T02:23:03;101594.34;;;10.35;56.71
6778;BME280;3426;52.244;10.534;2023-04-10T02:25:31;101589.19;;;10.32;56.06
6778;BME280;3426;52.244;10.534;2023-04-10T02:28:06;101596.59;;;9.98;56.90
6778;BME280;3426;52.244;10.534;2023-04-10T02:30:33;101585.44;;;9.90;57.46
6778;BME280;3426;52.244;10.534;2023-04-10T02:32:59;101590.81;;;9.87;56.85
6778;BME280;3426;52.244;10.534;2023-04-10T02:35:26;101590.19;;;9.80;57.40
6778;BME280;3426;52.244;10.534;2023-04-10T02:37:54;101585.69;;;10.07;56.72
6778;BME280;3426;52.244;10.534;2023-04-10T02:40:22;101589.47;;;10.00;56.63
6778;BME280;3426;52.244;10.534;2023-04-10T02:42:48;101589.72;;;9.94;57.27
6778;BME280;3426;52.244;10.534;2023-04-10T02:45:15;101587.06;;;9.94;57.09
6778;BME280;3426;52.244;10.534;2023-04-10T02:47:41;101583.41;;;9.73;58.11
6778;BME280;3426;52.244;10.534;2023-04-10T02:50:08;101582.06;;;9.61;57.90
6778;BME280;3426;52.244;10.534;2023-04-10T02:52:35;101577.78;;;9.57;58.21
6778;BME280;3426;52.244;10.534;2023-04-10T02:55:01;101567.22;;;9.57;58.33
6778;BME280;3426;52.244;10.534;2023-04-10T02:57:28;101564.91;;;9.48;58.47
6778;BME280;3426;52.244;10.534;2023-04-10T02:59:54;101556.34;;;9.90;57.06
6778;BME280;3426;52.244;10.534;2023-04-10T03:02:21;101563.00;;;10.00;56.79
6778;BME280;3426;52.244;10.534;2023-04-10T03:04:48;101557.25;;;10.12;56.30
6778;BME280;3426;52.244;10.534;2023-04-10T03:07:14;101550.78;;;10.19;55.75
6778;BME280;3426;52.244;10.534;2023-04-10T03:09:42;101552.66;;;10.17;56.27
6778;BME280;3426;52.244;10.534;2023-04-10T03:12:10;101557.41;;;10.32;55.39
6778;BME280;3426;52.244;10.534;2023-04-10T03:14:37;101558.63;;;10.22;55.56
6778;BME280;3426;52.244;10.534;2023-04-10T03:17:03;101549.19;;;10.15;56.48
6778;BME280;3426;52.244;10.534;2023-04-10T03:19:29;101546.31;;;10.21;56.37
6778;BME280;3426;52.244;10.534;2023-04-10T03:21:56;101551.66;;;10.20;55.91
6778;BME280;3426;52.244;10.534;2023-04-10T03:24:22;101554.16;;;10.24;55.96
6778;BME280;3426;52.244;10.534;2023-04-10T03:26:49;101545.13;;;10.06;56.53
6778;BME280;3426;52.244;10.534;2023-04-10T03:29:17;101548.81;;;10.26;55.44
6778;BME280;3426;52.244;10.534;2023-04-10T03:31:44;101546.50;;;10.40;55.09
6778;BME280;3426;52.244;10.534;2023-04-10T03:34:11;101538.47;;;10.42;55.35
6778;BME280;3426;52.244;10.534;2023-04-10T03:36:37;101543.50;;;10.26;55.82
6778;BME280;3426;52.244;10.534;2023-04-10T03:39:04;101539.44;;;9.94;56.56
6778;BME280;3426;52.244;10.534;2023-04-10T03:41:31;101535.84;;;10.18;56.63
6778;BME280;3426;52.244;10.534;2023-04-10T03:43:57;101533.59;;;10.07;56.44
6778;BME280;3426;52.244;10.534;2023-04-10T03:46:24;101534.38;;;9.88;56.98
6778;BME280;3426;52.244;10.534;2023-04-10T03:48:50;101538.38;;;9.74;57.60
6778;BME280;3426;52.244;10.534;2023-04-10T03:51:19;101537.63;;;9.71;57.45
6778;BME280;3426;52.244;10.534;2023-04-10T03:53:45;101530.19;;;9.57;58.11
6778;BME280;3426;52.244;10.534;2023-04-10T03:56:12;101530.75;;;9.42;58.29
6778;BME280;3426;52.244;10.534;2023-04-10T03:58:39;101534.38;;;9.63;58.09
6778;BME280;3426;52.244;10.534;2023-04-10T04:01:05;101538.34;;;9.51;58.68
6778;BME280;3426;52.244;10.534;2023-04-10T04:03:32;101526.69;;;9.32;59.09
6778;BME280;3426;52.244;10.534;2023-04-10T04:05:59;101536.44;;;9.29;59.10
6778;BME280;3426;52.244;10.534;2023-04-10T04:08:26;101541.94;;;9.23;59.11
6778;BME280;3426;52.244;10.534;2023-04-10T04:10:52;101536.88;;;9.67;58.34
6778;BME280;3426;52.244;10.534;2023-04-10T04:13:19;101537.53;;;9.49;58.59
6778;BME280;3426;52.244;10.534;2023-04-10T04:15:45;101533.59;;;9.36;59.12
6778;BME280;3426;52.244;10.534;2023-04-10T04:18:13;101530.69;;;9.43;58.85
6778;BME280;3426;52.244;10.534;2023-04-10T04:20:39;101528.91;;;9.44;58.37
6778;BME280;3426;52.244;10.534;2023-04-10T04:23:06;101529.00;;;9.66;58.06
6778;BME280;3426;52.244;10.534;2023-04-10T04:25:32;101529.47;;;9.52;58.60
6778;BME280;3426;52.244;10.534;2023-04-10T04:27:59;101527.28;;;9.88;57.42
6778;BME280;3426;52.244;10.534;2023-04-10T04:30:26;101532.16;;;9.75;57.90
6778;BME280;3426;52.244;10.534;2023-04-10T04:32:53;101526.59;;;9.83;57.69
6778;BME280;3426;52.244;10.534;2023-04-10T04:35:20;101537.47;;;9.99;56.89
6778;BME280;3426;52.244;10.534;2023-04-10T04:37:47;101538.84;;;9.86;56.87
6778;BME280;3426;52.244;10.534;2023-04-10T04:40:13;101530.41;;;9.76;57.47
6778;BME280;3426;52.244;10.534;2023-04-10T04:42:40;101540.97;;;9.76;57.12
6778;BME280;3426;52.244;10.534;2023-04-10T04:45:07;101535.16;;;9.41;58.87
6778;BME280;3426;52.244;10.534;2023-04-10T04:47:33;101539.34;;;9.47;58.41
6778;BME280;3426;52.244;10.534;2023-04-10T04:50:00;101536.16;;;9.87;57.36
6778;BME280;3426;52.244;10.534;2023-04-10T04:52:26;101533.31;;;9.92;57.27
6778;BME280;3426;52.244;10.534;2023-04-10T04:54:53;101522.78;;;9.90;56.83
6778;BME280;3426;52.244;10.534;2023-04-10T04:57:20;101529.31;;;9.81;56.63
6778;BME280;3426;52.244;10.534;2023-04-10T04:59:46;101523.34;;;10.22;55.08
6778;BME280;3426;52.244;10.534;2023-04-10T05:02:13;101523.19;;;10.26;55.31
6778;BME280;3426;52.244;10.534;2023-04-10T05:04:39;101527.22;;;9.90;56.26
6778;BME280;3426;52.244;10.534;2023-04-10T05:07:09;101523.56;;;9.94;56.25
6778;BME280;3426;52.244;10.534;2023-04-10T05:09:36;101522.59;;;10.18;55.29
6778;BME280;3426;52.244;10.534;2023-04-10T05:12:03;101525.25;;;10.42;55.02
6778;BME280;3426;52.244;10.534;2023-04-10T05:14:29;101524.09;;;10.27;55.01
6778;BME280;3426;52.244;10.534;2023-04-10T05:16:56;101522.41;;;10.24;55.42
6778;BME280;3426;52.244;10.534;2023-04-10T05:19:22;101518.16;;;10.19;55.49
6778;BME280;3426;52.244;10.534;2023-04-10T05:21:48;101518.75;;;10.03;55.80
6778;BME280;3426;52.244;10.534;2023-04-10T05:24:15;101520.63;;;10.47;54.13
6778;BME280;3426;52.244;10.534;2023-04-10T05:26:41;101528.06;;;10.59;55.39
6778;BME280;3426;52.244;10.534;2023-04-10T05:29:08;101527.09;;;10.61;55.02
6778;BME280;3426;52.244;10.534;2023-04-10T05:31:35;101531.56;;;10.61;53.77
6778;BME280;3426;52.244;10.534;2023-04-10T05:34:01;101530.31;;;11.12;53.31
6778;BME280;3426;52.244;10.534;2023-04-10T05:36:28;101525.47;;;11.01;53.03
6778;BME280;3426;52.244;10.534;2023-04-10T05:38:54;101534.69;;;11.13;52.75
6778;BME280;3426;52.244;10.534;2023-04-10T05:41:21;101534.00;;;11.28;52.31
6778;BME280;3426;52.244;10.534;2023-04-10T05:43:48;101529.66;;;11.07;52.00
6778;BME280;3426;52.244;10.534;2023-04-10T05:46:15;101531.69;;;11.21;52.38
6778;BME280;3426;52.244;10.534;2023-04-10T05:48:41;101529.75;;;11.04;52.32
6778;BME280;3426;52.244;10.534;2023-04-10T05:51:08;101530.72;;;11.23;51.92
6778;BME280;3426;52.244;10.534;2023-04-10T05:53:34;101536.59;;;11.50;51.26
6778;BME280;3426;52.244;10.534;2023-04-10T05:56:00;101528.78;;;11.47;50.92
6778;BME280;3426;52.244;10.534;2023-04-10T05:58:28;101524.59;;;12.20;49.56
6778;BME280;3426;52.244;10.534;2023-04-10T06:00:54;101520.72;;;12.27;49.32
6778;BME280;3426;52.244;10.534;2023-04-10T06:03:21;101518.97;;;13.16;48.04
6778;BME280;3426;52.244;10.534;2023-04-10T06:05:49;101523.84;;;13.08;47.92
6778;BME280;3426;52.244;10.534;2023-04-10T06:08:15;101510.31;;;13.47;46.79
6778;BME280;3426;52.244;10.534;2023-04-10T06:10:42;101520.34;;;13.24;46.90
6778;BME280;3426;52.244;10.534;2023-04-10T06:13:08;101519.88;;;13.51;46.97
6778;BME280;3426;52.244;10.534;2023-04-10T06:15:36;101518.28;;;13.12;47.40
6778;BME280;3426;52.244;10.534;2023-04-10T06:18:03;101527.97;;;13.65;45.98
6778;BME280;3426;52.244;10.534;2023-04-10T06:20:30;101526.19;;;13.82;45.50
6778;BME280;3426;52.244;10.534;2023-04-10T06:22:57;101524.97;;;13.71;45.83
6778;BME280;3426;52.244;10.534;2023-04-10T06:25:24;101518.50;;;13.60;45.82
6778;BME280;3426;52.244;10.534;2023-04-10T06:27:50;101517.28;;;13.83;46.63
6778;BME280;3426;52.244;10.534;2023-04-10T06:30:18;101523.81;;;13.93;45.64
6778;BME280;3426;52.244;10.534;2023-04-10T06:32:45;101520.66;;;14.18;45.89
6778;BME280;3426;52.244;10.534;2023-04-10T06:35:11;101518.63;;;13.74;46.22
6778;BME280;3426;52.244;10.534;2023-04-10T06:37:38;101515.53;;;14.30;45.02
6778;BME280;3426;52.244;10.534;2023-04-10T06:40:05;101517.34;;;14.62;44.70
6778;BME280;3426;52.244;10.534;2023-04-10T06:42:32;101513.19;;;15.32;43.66
6778;BME280;3426;52.244;10.534;2023-04-10T06:44:59;101516.22;;;14.66;44.65
6778;BME280;3426;52.244;10.534;2023-04-10T06:47:26;101509.22;;;14.79;44.71
6778;BME280;3426;52.244;10.534;2023-04-10T06:49:52;101514.63;;;14.93;44.07
6778;BME280;3426;52.244;10.534;2023-04-10T06:52:19;101506.84;;;14.27;45.34
6778;BME280;3426;52.244;10.534;2023-04-10T06:54:46;101504.41;;;14.06;46.22
6778;BME280;3426;52.244;10.534;2023-04-10T06:57:13;101499.59;;;13.31;47.21
6778;BME280;3426;52.244;10.534;2023-04-10T06:59:39;101501.09;;;14.19;46.25
6778;BME280;3426;52.244;10.534;2023-04-10T07:02:06;101498.34;;;14.36;45.93
6778;BME280;3426;52.244;10.534;2023-04-10T07:04:33;101498.63;;;14.47;45.60
6778;BME280;3426;52.244;10.534;2023-04-10T07:06:59;101494.81;;;14.20;46.20
6778;BME280;3426;52.244;10.534;2023-04-10T07:09:26;101491.34;;;13.86;46.76
6778;BME280;3426;52.244;10.534;2023-04-10T07:11:53;101478.84;;;14.81;45.03
6778;BME280;3426;52.244;10.534;2023-04-10T07:14:19;101479.88;;;14.79;44.87
6778;BME280;3426;52.244;10.534;2023-04-10T07:16:47;101475.69;;;14.75;45.00
6778;BME280;3426;52.244;10.534;2023-04-10T07:19:14;101468.03;;;14.99;45.03
6778;BME280;3426;52.244;10.534;2023-04-10T07:21:40;101464.38;;;15.58;43.96
6778;BME280;3426;52.244;10.534;2023-04-10T07:24:07;101456.50;;;15.71;44.01
6778;BME280;3426;52.244;10.534;2023-04-10T07:26:33;101462.41;;;15.76;43.17
6778;BME280;3426;52.244;10.534;2023-04-10T07:29:00;101454.25;;;16.33;43.14
6778;BME280;3426;52.244;10.534;2023-04-10T07:31:27;101455.66;;;16.80;42.19
6778;BME280;3426;52.244;10.534;2023-04-10T07:33:54;101461.28;;;16.22;42.74
6778;BME280;3426;52.244;10.534;2023-04-10T07:36:20;101464.78;;;15.95;42.86
6778;BME280;3426;52.244;10.534;2023-04-10T07:38:46;101459.72;;;16.59;42.35
6778;BME280;3426;52.244;10.534;2023-04-10T07:41:13;101450.13;;;16.69;42.37
6778;BME280;3426;52.244;10.534;2023-04-10T07:43:39;101451.16;;;16.93;42.68
6778;BME280;3426;52.244;10.534;2023-04-10T07:46:06;101444.00;;;16.94;42.02
6778;BME280;3426;52.244;10.534;2023-04-10T07:48:33;101443.50;;;17.14;41.67
6778;BME280;3426;52.244;10.534;2023-04-10T07:50:59;101447.75;;;17.30;40.60
6778;BME280;3426;52.244;10.534;2023-04-10T07:53:26;101439.03;;;17.90;40.92
6778;BME280;3426;52.244;10.534;2023-04-10T07:55:52;101442.72;;;17.12;40.90
6778;BME280;3426;52.244;10.534;2023-04-10T07:58:19;101446.06;;;17.29;40.64
6778;BME280;3426;52.244;10.534;2023-04-10T08:00:45;101442.19;;;17.84;38.45
6778;BME280;3426;52.244;10.534;2023-04-10T08:03:11;101440.78;;;17.78;38.47
6778;BME280;3426;52.244;10.534;2023-04-10T08:05:39;101435.16;;;18.31;37.86
6778;BME280;3426;52.244;10.534;2023-04-10T08:08:05;101430.81;;;17.93;38.49
6778;BME280;3426;52.244;10.534;2023-04-10T08:10:32;101434.25;;;17.18;39.08
6778;BME280;3426;52.244;10.534;2023-04-10T08:12:58;101429.81;;;17.94;37.78
6778;BME280;3426;52.244;10.534;2023-04-10T08:15:25;101434.50;;;18.03;37.70
6778;BME280;3426;52.244;10.534;2023-04-10T08:17:51;101414.16;;;18.24;37.58
6778;BME280;3426;52.244;10.534;2023-04-10T08:20:19;101413.84;;;18.64;36.38
6778;BME280;3426;52.244;10.534;2023-04-10T08:22:45;101421.13;;;18.86;36.12
6778;BME280;3426;52.244;10.534;2023-04-10T08:25:12;101409.97;;;19.93;33.75
6778;BME280;3426;52.244;10.534;2023-04-10T08:27:38;101407.94;;;20.18;33.09
6778;BME280;3426;52.244;10.534;2023-04-10T08:30:05;101401.91;;;20.36;33.23
6778;BME280;3426;52.244;10.534;2023-04-10T08:32:32;101410.22;;;19.90;33.40
6778;BME280;3426;52.244;10.534;2023-04-10T08:34:58;101414.94;;;18.38;35.64
6778;BME280;3426;52.244;10.534;2023-04-10T08:37:25;101400.72;;;19.52;34.17
6778;BME280;3426;52.244;10.534;2023-04-10T08:39:52;101398.38;;;19.37;34.11
6778;BME280;3426;52.244;10.534;2023-04-10T08:42:18;101408.88;;;18.71;34.73
6778;BME280;3426;52.244;10.534;2023-04-10T08:44:48;101406.88;;;18.62;35.38
6778;BME280;3426;52.244;10.534;2023-04-10T08:47:19;101404.50;;;18.46;36.12
6778;BME280;3426;52.244;10.534;2023-04-10T08:49:56;101389.13;;;19.41;34.90
6778;BME280;3426;52.244;10.534;2023-04-10T08:52:28;101382.00;;;19.28;35.14
6778;BME280;3426;52.244;10.534;2023-04-10T08:54:58;101383.75;;;19.52;35.62
6778;BME280;3426;52.244;10.534;2023-04-10T08:57:25;101376.59;;;19.96;35.56
6778;BME280;3426;52.244;10.534;2023-04-10T08:59:53;101382.09;;;18.93;37.53
6778;BME280;3426;52.244;10.534;2023-04-10T09:02:20;101382.03;;;17.88;37.45
6778;BME280;3426;52.244;10.534;2023-04-10T09:04:49;101374.97;;;18.70;36.14
6778;BME280;3426;52.244;10.534;2023-04-10T09:07:17;101376.38;;;18.51;36.97
6778;BME280;3426;52.244;10.534;2023-04-10T09:09:43;101363.69;;;19.00;37.16
6778;BME280;3426;52.244;10.534;2023-04-10T09:12:12;101365.03;;;19.28;37.23
6778;BME280;3426;52.244;10.534;2023-04-10T09:14:40;101362.97;;;18.98;37.16
6778;BME280;3426;52.244;10.534;2023-04-10T09:19:36;101359.03;;;18.20;38.03
6778;BME280;3426;52.244;10.534;2023-04-10T09:22:03;101354.28;;;19.05;37.81
6778;BME280;3426;52.244;10.534;2023-04-10T09:24:29;101345.66;;;19.13;38.28
6778;BME280;3426;52.244;10.534;2023-04-10T09:26:56;101340.28;;;19.24;38.50
6778;BME280;3426;52.244;10.534;2023-04-10T09:29:23;101334.41;;;18.86;38.28
6778;BME280;3426;52.244;10.534;2023-04-10T09:31:50;101329.88;;;18.75;39.64
6778;BME280;3426;52.244;10.534;2023-04-10T09:34:21;101332.44;;;18.88;38.09
6778;BME280;3426;52.244;10.534;2023-04-10T09:36:56;101319.28;;;19.18;37.39
6778;BME280;3426;52.244;10.534;2023-04-10T09:39:34;101314.50;;;19.11;38.52
6778;BME280;3426;52.244;10.534;2023-04-10T09:42:01;101317.59;;;19.06;37.93
6778;BME280;3426;52.244;10.534;2023-04-10T09:44:30;101320.31;;;18.24;38.92
6778;BME280;3426;52.244;10.534;2023-04-10T09:46:58;101310.13;;;18.87;38.49
6778;BME280;3426;52.244;10.534;2023-04-10T09:49:25;101307.56;;;19.19;37.75
6778;BME280;3426;52.244;10.534;2023-04-10T09:51:52;101300.81;;;19.70;37.36
6778;BME280;3426;52.244;10.534;2023-04-10T09:54:34;101300.81;;;18.69;38.42
6778;BME280;3426;52.244;10.534;2023-04-10T09:57:01;101294.00;;;18.76;38.50
6778;BME280;3426;52.244;10.534;2023-04-10T09:59:29;101294.50;;;18.81;37.75
6778;BME280;3426;52.244;10.534;2023-04-10T10:01:55;101287.41;;;19.36;38.03
6778;BME280;3426;52.244;10.534;2023-04-10T10:04:22;101276.25;;;19.74;36.36
6778;BME280;3426;52.244;10.534;2023-04-10T10:06:50;101264.19;;;18.45;38.28
6778;BME280;3426;52.244;10.534;2023-04-10T10:09:16;101266.94;;;19.01;37.43
6778;BME280;3426;52.244;10.534;2023-04-10T10:11:43;101258.53;;;19.72;37.97
6778;BME280;3426;52.244;10.534;2023-04-10T10:14:14;101261.63;;;19.33;36.35
6778;BME280;3426;52.244;10.534;2023-04-10T10:16:49;101251.44;;;18.94;36.39
6778;BME280;3426;52.244;10.534;2023-04-10T10:19:26;101250.13;;;19.54;37.85
6778;BME280;3426;52.244;10.534;2023-04-10T10:21:54;101252.66;;;19.23;36.92
6778;BME280;3426;52.244;10.534;2023-04-10T10:24:22;101243.81;;;18.65;38.20
6778;BME280;3426;52.244;10.534;2023-04-10T10:26:49;101229.81;;;18.62;38.41
6778;BME280;3426;52.244;10.534;2023-04-10T10:29:17;101230.16;;;18.35;38.90
6778;BME280;3426;52.244;10.534;2023-04-10T10:31:45;101219.59;;;17.74;40.86
6778;BME280;3426;52.244;10.534;2023-04-10T10:34:14;101217.53;;;18.82;38.46
6778;BME280;3426;52.244;10.534;2023-04-10T10:36:41;101208.81;;;18.33;39.29
6778;BME280;3426;52.244;10.534;2023-04-10T10:41:47;101188.22;;;18.45;39.06
6778;BME280;3426;52.244;10.534;2023-04-10T10:47:15;101187.13;;;18.47;38.03
6778;BME280;3426;52.244;10.534;2023-04-10T10:52:42;101167.50;;;18.36;39.19
6778;BME280;3426;52.244;10.534;2023-04-10T10:57:52;101169.16;;;18.14;39.79
6778;BME280;3426;52.244;10.534;2023-04-10T11:00:20;101154.56;;;18.30;39.15
6778;BME280;3426;52.244;10.534;2023-04-10T11:05:55;101146.75;;;18.49;37.22
6778;BME280;3426;52.244;10.534;2023-04-10T11:11:03;101142.84;;;18.31;36.43
6778;BME280;3426;52.244;10.534;2023-04-10T11:13:35;101152.59;;;18.20;37.63
6778;BME280;3426;52.244;10.534;2023-04-10T11:16:03;101140.69;;;18.80;36.39
6778;BME280;3426;52.244;10.534;2023-04-10T11:19:00;101117.50;;;18.57;36.60
6778;BME280;3426;52.244;10.534;2023-04-10T11:22:00;101110.94;;;18.84;36.85
6778;BME280;3426;52.244;10.534;2023-04-10T11:24:27;101110.56;;;19.20;35.88
6778;BME280;3426;52.244;10.534;2023-04-10T11:26:54;101111.38;;;18.89;33.44
6778;BME280;3426;52.244;10.534;2023-04-10T11:32:03;101094.78;;;19.27;31.40
6778;BME280;3426;52.244;10.534;2023-04-10T11:34:31;101087.31;;;19.63;31.29
6778;BME280;3426;52.244;10.534;2023-04-10T11:36:59;101090.66;;;19.97;31.40
6778;BME280;3426;52.244;10.534;2023-04-10T11:39:29;101081.63;;;19.45;31.64
6778;BME280;3426;52.244;10.534;2023-04-10T11:41:56;101075.41;;;20.07;31.05
6778;BME280;3426;52.244;10.534;2023-04-10T11:44:33;101072.34;;;19.91;30.41
6778;BME280;3426;52.244;10.534;2023-04-10T11:47:04;101083.50;;;19.65;30.36
6778;BME280;3426;52.244;10.534;2023-04-10T11:49:32;101069.47;;;19.62;30.38
6778;BME280;3426;52.244;10.534;2023-04-10T11:52:00;101053.34;;;19.41;31.28
6778;BME280;3426;52.244;10.534;2023-04-10T11:54:28;101057.41;;;19.98;31.25
6778;BME280;3426;52.244;10.534;2023-04-10T11:57:05;101036.66;;;20.19;30.38
6778;BME280;3426;52.244;10.534;2023-04-10T11:59:33;101050.50;;;19.74;30.13
6778;BME280;3426;52.244;10.534;2023-04-10T12:02:17;101053.81;;;19.46;30.70
6778;BME280;3426;52.244;10.534;2023-04-10T12:04:44;101025.38;;;19.64;30.47
6778;BME280;3426;52.244;10.534;2023-04-10T12:07:11;101031.91;;;19.29;30.29
6778;BME280;3426;52.244;10.534;2023-04-10T12:09:37;101017.56;;;19.61;30.57
6778;BME280;3426;52.244;10.534;2023-04-10T12:12:06;101023.91;;;20.52;29.90
6778;BME280;3426;52.244;10.534;2023-04-10T12:17:00;101014.63;;;20.25;29.19
6778;BME280;3426;52.244;10.534;2023-04-10T12:19:27;101002.22;;;20.44;30.06
6778;BME280;3426;52.244;10.534;2023-04-10T12:21:55;100994.91;;;20.15;30.08
6778;BME280;3426;52.244;10.534;2023-04-10T12:27:18;101004.22;;;20.11;29.70
6778;BME280;3426;52.244;10.534;2023-04-10T12:29:46;100984.53;;;19.49;30.16
6778;BME280;3426;52.244;10.534;2023-04-10T12:32:13;100990.38;;;19.54;30.38
6778;BME280;3426;52.244;10.534;2023-04-10T12:34:40;100974.84;;;19.89;29.76
6778;BME280;3426;52.244;10.534;2023-04-10T12:37:07;100992.16;;;19.65;30.51
6778;BME280;3426;52.244;10.534;2023-04-10T12:39:35;100984.00;;;20.17;29.96
6778;BME280;3426;52.244;10.534;2023-04-10T12:42:21;100980.44;;;19.97;30.74
6778;BME280;3426;52.244;10.534;2023-04-10T12:45:00;100981.09;;;20.39;28.61
6778;BME280;3426;52.244;10.534;2023-04-10T12:47:27;100969.44;;;20.19;28.30
6778;BME280;3426;52.244;10.534;2023-04-10T12:50:05;100969.97;;;20.13;28.75
6778;BME280;3426;52.244;10.534;2023-04-10T12:52:31;100963.97;;;20.40;29.11
6778;BME280;3426;52.244;10.534;2023-04-10T12:55:18;100959.28;;;20.32;29.19
6778;BME280;3426;52.244;10.534;2023-04-10T12:57:46;100965.97;;;20.48;28.00
6778;BME280;3426;52.244;10.534;2023-04-10T13:00:15;100944.81;;;20.14;28.05
6778;BME280;3426;52.244;10.534;2023-04-10T13:02:42;100932.28;;;20.53;28.45
6778;BME280;3426;52.244;10.534;2023-04-10T13:05:09;100945.34;;;20.08;29.26
6778;BME280;3426;52.244;10.534;2023-04-10T13:07:37;100929.31;;;20.66;29.25
6778;BME280;3426;52.244;10.534;2023-04-10T13:10:06;100923.66;;;20.79;28.51
6778;BME280;3426;52.244;10.534;2023-04-10T13:12:33;100915.72;;;20.48;28.17
6778;BME280;3426;52.244;10.534;2023-04-10T13:15:01;100925.03;;;20.92;27.50
6778;BME280;3426;52.244;10.534;2023-04-10T13:17:28;100914.00;;;20.86;28.45
6778;BME280;3426;52.244;10.534;2023-04-10T13:19:54;100908.31;;;20.41;28.77
6778;BME280;3426;52.244;10.534;2023-04-10T13:22:21;100913.59;;;20.81;29.90
6778;BME280;3426;52.244;10.534;2023-04-10T13:24:48;100902.13;;;20.69;28.85
6778;BME280;3426;52.244;10.534;2023-04-10T13:27:14;100906.09;;;19.86;28.97
6778;BME280;3426;52.244;10.534;2023-04-10T13:29:41;100889.63;;;20.20;28.96
6778;BME280;3426;52.244;10.534;2023-04-10T13:32:08;100897.81;;;19.68;29.13
6778;BME280;3426;52.244;10.534;2023-04-10T13:34:35;100878.34;;;20.55;28.89
6778;BME280;3426;52.244;10.534;2023-04-10T13:37:01;100889.59;;;20.10;29.11
6778;BME280;3426;52.244;10.534;2023-04-10T13:39:29;100877.88;;;20.21;29.22
6778;BME280;3426;52.244;10.534;2023-04-10T13:41:57;100890.91;;;19.66;30.21
6778;BME280;3426;52.244;10.534;2023-04-10T13:44:24;100881.81;;;19.97;29.40
6778;BME280;3426;52.244;10.534;2023-04-10T13:46:50;100883.31;;;19.80;30.23
6778;BME280;3426;52.244;10.534;2023-04-10T13:49:17;100864.97;;;20.05;29.81